sensor_id;sensor_type;location;lat;lon;timestamp;P1;durP1;ratioP1;P2;durP2;ratioP2
10725;SDS011;5414;59.782;16.378;2023-02-22T00:00:35;2.70;;;2.50;;
10725;SDS011;5414;59.782;16.378;2023-02-22T00:03:08;2.93;;;2.63;;
10725;SDS011;5414;59.782;16.378;2023-02-22T00:05:35;3.00;;;2.70;;
10725;SDS011;5414;59.782;16.378;2023-02-22T00:08:03;2.40;;;2.20;;
10725;SDS011;5414;59.782;16.378;2023-02-22T00:10:33;2.80;;;2.40;;
10725;SDS011;5414;59.782;16.378;2023-02-22T00:12:59;3.07;;;2.60;;
10725;SDS011;5414;59.782;16.378;2023-02-22T00:15:25;3.10;;;2.80;;
10725;SDS011;5414;59.782;16.378;2023-02-22T00:17:51;3.10;;;2.50;;
10725;SDS011;5414;59.782;16.378;2023-02-22T00:20:17;3.20;;;2.50;;
10725;SDS011;5414;59.782;16.378;2023-02-22T00:22:44;3.33;;;2.97;;
10725;SDS011;5414;59.782;16.378;2023-02-22T00:25:11;2.50;;;2.23;;
10725;SDS011;5414;59.782;16.378;2023-02-22T00:27:37;2.90;;;2.60;;
10725;SDS011;5414;59.782;16.378;2023-02-22T00:30:04;2.83;;;2.53;;
10725;SDS011;5414;59.782;16.378;2023-02-22T00:32:31;3.33;;;2.90;;
10725;SDS011;5414;59.782;16.378;2023-02-22T00:34:57;3.83;;;2.73;;
10725;SDS011;5414;59.782;16.378;2023-02-22T00:37:23;2.70;;;2.40;;
10725;SDS011;5414;59.782;16.378;2023-02-22T00:39:49;3.50;;;2.63;;
10725;SDS011;5414;59.782;16.378;2023-02-22T00:42:16;2.83;;;2.53;;
10725;SDS011;5414;59.782;16.378;2023-02-22T00:44:43;2.93;;;2.47;;
10725;SDS011;5414;59.782;16.378;2023-02-22T00:47:09;2.67;;;2.40;;
10725;SDS011;5414;59.782;16.378;2023-02-22T00:49:35;2.83;;;2.53;;
10725;SDS011;5414;59.782;16.378;2023-02-22T00:52:01;3.07;;;2.50;;
10725;SDS011;5414;59.782;16.378;2023-02-22T00:54:28;3.00;;;2.70;;
10725;SDS011;5414;59.782;16.378;2023-02-22T00:56:54;2.97;;;2.33;;
10725;SDS011;5414;59.782;16.378;2023-02-22T00:59:22;3.80;;;2.67;;
10725;SDS011;5414;59.782;16.378;2023-02-22T01:01:48;2.63;;;2.30;;
10725;SDS011;5414;59.782;16.378;2023-02-22T01:04:14;3.03;;;2.50;;
10725;SDS011;5414;59.782;16.378;2023-02-22T01:06:40;2.83;;;2.10;;
10725;SDS011;5414;59.782;16.378;2023-02-22T01:09:06;3.27;;;2.70;;
10725;SDS011;5414;59.782;16.378;2023-02-22T01:11:32;3.57;;;2.87;;
10725;SDS011;5414;59.782;16.378;2023-02-22T01:13:58;2.97;;;2.50;;
10725;SDS011;5414;59.782;16.378;2023-02-22T01:16:24;2.30;;;2.10;;
10725;SDS011;5414;59.782;16.378;2023-02-22T01:18:51;2.57;;;2.30;;
10725;SDS011;5414;59.782;16.378;2023-02-22T01:21:17;2.50;;;2.10;;
10725;SDS011;5414;59.782;16.378;2023-02-22T01:23:43;2.70;;;2.30;;
10725;SDS011;5414;59.782;16.378;2023-02-22T01:26:10;2.47;;;2.20;;
10725;SDS011;5414;59.782;16.378;2023-02-22T01:28:36;2.70;;;2.30;;
10725;SDS011;5414;59.782;16.378;2023-02-22T01:31:02;2.70;;;2.47;;
10725;SDS011;5414;59.782;16.378;2023-02-22T01:33:28;2.90;;;2.60;;
10725;SDS011;5414;59.782;16.378;2023-02-22T01:35:54;2.40;;;2.20;;
10725;SDS011;5414;59.782;16.378;2023-02-22T01:38:21;3.10;;;2.40;;
10725;SDS011;5414;59.782;16.378;2023-02-22T01:40:47;2.63;;;2.23;;
10725;SDS011;5414;59.782;16.378;2023-02-22T01:43:22;2.33;;;2.13;;
10725;SDS011;5414;59.782;16.378;2023-02-22T01:50:54;2.20;;;1.90;;
10725;SDS011;5414;59.782;16.378;2023-02-22T01:53:23;3.00;;;2.50;;
10725;SDS011;5414;59.782;16.378;2023-02-22T01:55:49;3.17;;;2.40;;
10725;SDS011;5414;59.782;16.378;2023-02-22T01:58:16;2.70;;;2.37;;
10725;SDS011;5414;59.782;16.378;2023-02-22T02:00:43;2.50;;;2.20;;
10725;SDS011;5414;59.782;16.378;2023-02-22T02:03:11;2.50;;;2.30;;
10725;SDS011;5414;59.782;16.378;2023-02-22T02:05:39;2.40;;;2.20;;
10725;SDS011;5414;59.782;16.378;2023-02-22T02:08:15;2.43;;;2.10;;
10725;SDS011;5414;59.782;16.378;2023-02-22T02:10:41;3.23;;;2.80;;
10725;SDS011;5414;59.782;16.378;2023-02-22T02:13:08;2.60;;;2.37;;
10725;SDS011;5414;59.782;16.378;2023-02-22T02:15:35;3.37;;;2.70;;
10725;SDS011;5414;59.782;16.378;2023-02-22T02:18:04;2.87;;;2.20;;
10725;SDS011;5414;59.782;16.378;2023-02-22T02:26:00;2.50;;;2.30;;
10725;SDS011;5414;59.782;16.378;2023-02-22T02:41:31;2.43;;;2.20;;
10725;SDS011;5414;59.782;16.378;2023-02-22T02:44:00;4.33;;;2.77;;
10725;SDS011;5414;59.782;16.378;2023-02-22T02:46:34;2.73;;;2.40;;
10725;SDS011;5414;59.782;16.378;2023-02-22T02:49:09;3.20;;;2.43;;
10725;SDS011;5414;59.782;16.378;2023-02-22T02:51:37;2.83;;;2.33;;
10725;SDS011;5414;59.782;16.378;2023-02-22T02:54:04;2.37;;;2.17;;
10725;SDS011;5414;59.782;16.378;2023-02-22T02:56:31;2.70;;;2.40;;
10725;SDS011;5414;59.782;16.378;2023-02-22T02:58:57;2.67;;;2.33;;
10725;SDS011;5414;59.782;16.378;2023-02-22T03:04:32;3.33;;;2.13;;
10725;SDS011;5414;59.782;16.378;2023-02-22T03:07:01;3.23;;;2.37;;
10725;SDS011;5414;59.782;16.378;2023-02-22T03:14:41;2.50;;;2.30;;
10725;SDS011;5414;59.782;16.378;2023-02-22T03:17:22;2.77;;;2.17;;
10725;SDS011;5414;59.782;16.378;2023-02-22T03:19:49;2.47;;;2.13;;
10725;SDS011;5414;59.782;16.378;2023-02-22T03:24:47;2.73;;;2.40;;
10725;SDS011;5414;59.782;16.378;2023-02-22T03:29:45;2.93;;;2.50;;
10725;SDS011;5414;59.782;16.378;2023-02-22T03:32:15;2.47;;;2.20;;
10725;SDS011;5414;59.782;16.378;2023-02-22T03:34:43;3.17;;;2.50;;
10725;SDS011;5414;59.782;16.378;2023-02-22T03:39:39;2.37;;;2.00;;
10725;SDS011;5414;59.782;16.378;2023-02-22T03:42:07;2.90;;;2.20;;
10725;SDS011;5414;59.782;16.378;2023-02-22T03:44:34;2.80;;;2.30;;
10725;SDS011;5414;59.782;16.378;2023-02-22T03:47:04;2.20;;;2.00;;
10725;SDS011;5414;59.782;16.378;2023-02-22T03:51:57;2.57;;;2.30;;
10725;SDS011;5414;59.782;16.378;2023-02-22T03:54:23;2.20;;;2.00;;
10725;SDS011;5414;59.782;16.378;2023-02-22T03:59:42;2.50;;;2.13;;
10725;SDS011;5414;59.782;16.378;2023-02-22T04:02:08;2.90;;;2.20;;
10725;SDS011;5414;59.782;16.378;2023-02-22T04:04:34;2.50;;;2.30;;
10725;SDS011;5414;59.782;16.378;2023-02-22T04:07:00;2.87;;;2.50;;
10725;SDS011;5414;59.782;16.378;2023-02-22T04:09:26;2.83;;;2.43;;
10725;SDS011;5414;59.782;16.378;2023-02-22T04:11:52;2.93;;;2.20;;
10725;SDS011;5414;59.782;16.378;2023-02-22T04:14:18;2.83;;;2.17;;
10725;SDS011;5414;59.782;16.378;2023-02-22T04:16:44;2.23;;;2.03;;
10725;SDS011;5414;59.782;16.378;2023-02-22T04:19:10;2.40;;;2.20;;
10725;SDS011;5414;59.782;16.378;2023-02-22T04:21:36;2.30;;;2.10;;
10725;SDS011;5414;59.782;16.378;2023-02-22T04:24:02;2.03;;;1.80;;
10725;SDS011;5414;59.782;16.378;2023-02-22T04:26:28;2.50;;;2.30;;
10725;SDS011;5414;59.782;16.378;2023-02-22T04:28:54;2.20;;;2.00;;
10725;SDS011;5414;59.782;16.378;2023-02-22T04:31:20;2.30;;;2.00;;
10725;SDS011;5414;59.782;16.378;2023-02-22T04:33:46;2.77;;;2.17;;
10725;SDS011;5414;59.782;16.378;2023-02-22T04:36:12;2.30;;;1.97;;
10725;SDS011;5414;59.782;16.378;2023-02-22T04:38:40;2.60;;;2.30;;
10725;SDS011;5414;59.782;16.378;2023-02-22T04:41:06;2.57;;;2.20;;
10725;SDS011;5414;59.782;16.378;2023-02-22T04:43:32;2.70;;;2.30;;
10725;SDS011;5414;59.782;16.378;2023-02-22T04:45:58;2.40;;;2.20;;
10725;SDS011;5414;59.782;16.378;2023-02-22T04:48:24;3.07;;;2.60;;
10725;SDS011;5414;59.782;16.378;2023-02-22T04:50:50;2.40;;;2.17;;
10725;SDS011;5414;59.782;16.378;2023-02-22T04:53:16;2.43;;;2.07;;
10725;SDS011;5414;59.782;16.378;2023-02-22T04:55:42;2.73;;;2.43;;
10725;SDS011;5414;59.782;16.378;2023-02-22T04:58:08;2.90;;;2.50;;
10725;SDS011;5414;59.782;16.378;2023-02-22T05:00:34;2.33;;;2.10;;
10725;SDS011;5414;59.782;16.378;2023-02-22T05:03:00;2.53;;;2.30;;
10725;SDS011;5414;59.782;16.378;2023-02-22T05:05:26;2.43;;;2.20;;
10725;SDS011;5414;59.782;16.378;2023-02-22T05:07:52;2.70;;;2.10;;
10725;SDS011;5414;59.782;16.378;2023-02-22T05:10:19;2.63;;;1.97;;
10725;SDS011;5414;59.782;16.378;2023-02-22T05:12:45;3.10;;;2.23;;
10725;SDS011;5414;59.782;16.378;2023-02-22T05:15:15;2.93;;;2.27;;
10725;SDS011;5414;59.782;16.378;2023-02-22T05:17:41;2.00;;;1.70;;
10725;SDS011;5414;59.782;16.378;2023-02-22T05:20:09;2.33;;;2.00;;
10725;SDS011;5414;59.782;16.378;2023-02-22T05:22:41;2.80;;;2.33;;
10725;SDS011;5414;59.782;16.378;2023-02-22T05:25:07;3.03;;;2.30;;
10725;SDS011;5414;59.782;16.378;2023-02-22T05:27:35;2.37;;;2.00;;
10725;SDS011;5414;59.782;16.378;2023-02-22T05:30:01;2.60;;;2.23;;
10725;SDS011;5414;59.782;16.378;2023-02-22T05:32:27;2.33;;;2.10;;
10725;SDS011;5414;59.782;16.378;2023-02-22T05:34:53;2.67;;;2.30;;
10725;SDS011;5414;59.782;16.378;2023-02-22T05:37:19;2.70;;;2.20;;
10725;SDS011;5414;59.782;16.378;2023-02-22T05:39:45;3.23;;;2.33;;
10725;SDS011;5414;59.782;16.378;2023-02-22T05:42:11;2.70;;;2.30;;
10725;SDS011;5414;59.782;16.378;2023-02-22T05:44:37;2.40;;;2.17;;
10725;SDS011;5414;59.782;16.378;2023-02-22T05:47:03;2.53;;;2.10;;
10725;SDS011;5414;59.782;16.378;2023-02-22T05:49:29;2.17;;;1.87;;
10725;SDS011;5414;59.782;16.378;2023-02-22T05:51:55;3.00;;;2.10;;
10725;SDS011;5414;59.782;16.378;2023-02-22T05:54:23;3.70;;;2.40;;
10725;SDS011;5414;59.782;16.378;2023-02-22T05:56:49;2.80;;;2.40;;
10725;SDS011;5414;59.782;16.378;2023-02-22T05:59:15;3.50;;;2.23;;
10725;SDS011;5414;59.782;16.378;2023-02-22T06:01:41;3.13;;;2.30;;
10725;SDS011;5414;59.782;16.378;2023-02-22T06:04:07;2.57;;;2.07;;
10725;SDS011;5414;59.782;16.378;2023-02-22T06:06:33;2.70;;;2.40;;
10725;SDS011;5414;59.782;16.378;2023-02-22T06:08:59;1.97;;;1.77;;
10725;SDS011;5414;59.782;16.378;2023-02-22T06:11:26;3.27;;;2.27;;
10725;SDS011;5414;59.782;16.378;2023-02-22T06:13:52;2.43;;;2.20;;
10725;SDS011;5414;59.782;16.378;2023-02-22T06:16:19;2.60;;;2.30;;
10725;SDS011;5414;59.782;16.378;2023-02-22T06:18:45;3.40;;;2.20;;
10725;SDS011;5414;59.782;16.378;2023-02-22T06:21:11;2.70;;;2.17;;
10725;SDS011;5414;59.782;16.378;2023-02-22T06:23:37;3.10;;;2.20;;
10725;SDS011;5414;59.782;16.378;2023-02-22T06:26:03;2.73;;;2.37;;
10725;SDS011;5414;59.782;16.378;2023-02-22T06:28:31;3.70;;;2.30;;
10725;SDS011;5414;59.782;16.378;2023-02-22T06:30:57;2.50;;;2.30;;
10725;SDS011;5414;59.782;16.378;2023-02-22T06:33:23;3.03;;;2.30;;
10725;SDS011;5414;59.782;16.378;2023-02-22T06:35:49;2.40;;;2.20;;
10725;SDS011;5414;59.782;16.378;2023-02-22T06:38:21;2.87;;;2.20;;
10725;SDS011;5414;59.782;16.378;2023-02-22T06:40:49;3.37;;;2.43;;
10725;SDS011;5414;59.782;16.378;2023-02-22T06:43:15;2.97;;;2.57;;
10725;SDS011;5414;59.782;16.378;2023-02-22T06:45:41;2.50;;;2.30;;
10725;SDS011;5414;59.782;16.378;2023-02-22T06:48:07;3.07;;;2.50;;
10725;SDS011;5414;59.782;16.378;2023-02-22T06:50:33;2.40;;;2.20;;
10725;SDS011;5414;59.782;16.378;2023-02-22T06:52:59;2.73;;;2.33;;
10725;SDS011;5414;59.782;16.378;2023-02-22T06:55:26;3.60;;;2.73;;
10725;SDS011;5414;59.782;16.378;2023-02-22T06:57:52;2.37;;;2.17;;
10725;SDS011;5414;59.782;16.378;2023-02-22T07:00:19;3.50;;;2.20;;
10725;SDS011;5414;59.782;16.378;2023-02-22T07:02:45;3.97;;;2.90;;
10725;SDS011;5414;59.782;16.378;2023-02-22T07:05:15;3.50;;;2.40;;
10725;SDS011;5414;59.782;16.378;2023-02-22T07:07:41;2.73;;;2.50;;
10725;SDS011;5414;59.782;16.378;2023-02-22T07:10:08;3.03;;;2.50;;
10725;SDS011;5414;59.782;16.378;2023-02-22T07:12:34;2.77;;;2.27;;
10725;SDS011;5414;59.782;16.378;2023-02-22T07:15:00;4.57;;;4.17;;
10725;SDS011;5414;59.782;16.378;2023-02-22T07:17:26;4.10;;;2.80;;
10725;SDS011;5414;59.782;16.378;2023-02-22T07:19:52;3.77;;;3.07;;
10725;SDS011;5414;59.782;16.378;2023-02-22T07:22:18;3.77;;;2.80;;
10725;SDS011;5414;59.782;16.378;2023-02-22T07:24:44;3.67;;;3.00;;
10725;SDS011;5414;59.782;16.378;2023-02-22T07:27:11;3.53;;;2.90;;
10725;SDS011;5414;59.782;16.378;2023-02-22T07:29:37;3.73;;;2.80;;
10725;SDS011;5414;59.782;16.378;2023-02-22T07:32:03;3.10;;;2.70;;
10725;SDS011;5414;59.782;16.378;2023-02-22T07:34:30;3.10;;;2.80;;
10725;SDS011;5414;59.782;16.378;2023-02-22T07:36:56;3.90;;;3.10;;
10725;SDS011;5414;59.782;16.378;2023-02-22T07:39:22;3.50;;;2.40;;
10725;SDS011;5414;59.782;16.378;2023-02-22T07:41:48;3.47;;;2.73;;
10725;SDS011;5414;59.782;16.378;2023-02-22T07:44:14;3.97;;;2.97;;
10725;SDS011;5414;59.782;16.378;2023-02-22T07:46:41;4.07;;;3.27;;
10725;SDS011;5414;59.782;16.378;2023-02-22T07:49:11;3.43;;;2.77;;
10725;SDS011;5414;59.782;16.378;2023-02-22T07:51:37;4.50;;;3.23;;
10725;SDS011;5414;59.782;16.378;2023-02-22T07:54:03;3.80;;;2.93;;
10725;SDS011;5414;59.782;16.378;2023-02-22T07:56:29;3.23;;;2.90;;
10725;SDS011;5414;59.782;16.378;2023-02-22T07:58:55;3.10;;;2.60;;
10725;SDS011;5414;59.782;16.378;2023-02-22T08:01:21;2.97;;;2.30;;
10725;SDS011;5414;59.782;16.378;2023-02-22T08:03:48;2.77;;;2.50;;
10725;SDS011;5414;59.782;16.378;2023-02-22T08:06:14;2.40;;;2.20;;
10725;SDS011;5414;59.782;16.378;2023-02-22T08:08:40;2.67;;;2.33;;
10725;SDS011;5414;59.782;16.378;2023-02-22T08:11:06;2.40;;;2.20;;
10725;SDS011;5414;59.782;16.378;2023-02-22T08:13:32;2.93;;;2.27;;
10725;SDS011;5414;59.782;16.378;2023-02-22T08:16:01;2.20;;;2.00;;
10725;SDS011;5414;59.782;16.378;2023-02-22T08:18:27;2.70;;;2.30;;
10725;SDS011;5414;59.782;16.378;2023-02-22T08:20:53;3.20;;;2.40;;
10725;SDS011;5414;59.782;16.378;2023-02-22T08:23:20;2.80;;;2.50;;
10725;SDS011;5414;59.782;16.378;2023-02-22T08:25:46;2.87;;;2.47;;
10725;SDS011;5414;59.782;16.378;2023-02-22T08:28:13;2.17;;;1.97;;
10725;SDS011;5414;59.782;16.378;2023-02-22T08:30:40;2.50;;;2.17;;
10725;SDS011;5414;59.782;16.378;2023-02-22T08:33:10;2.57;;;2.17;;
10725;SDS011;5414;59.782;16.378;2023-02-22T08:35:38;3.17;;;2.70;;
10725;SDS011;5414;59.782;16.378;2023-02-22T08:38:05;2.60;;;2.40;;
10725;SDS011;5414;59.782;16.378;2023-02-22T08:40:35;2.90;;;2.37;;
10725;SDS011;5414;59.782;16.378;2023-02-22T08:43:02;3.20;;;2.37;;
10725;SDS011;5414;59.782;16.378;2023-02-22T08:45:28;2.37;;;2.17;;
10725;SDS011;5414;59.782;16.378;2023-02-22T08:47:55;2.73;;;2.30;;
10725;SDS011;5414;59.782;16.378;2023-02-22T08:50:22;2.90;;;2.60;;
10725;SDS011;5414;59.782;16.378;2023-02-22T08:52:53;2.93;;;2.63;;
10725;SDS011;5414;59.782;16.378;2023-02-22T08:55:23;2.43;;;2.23;;
10725;SDS011;5414;59.782;16.378;2023-02-22T08:57:49;2.57;;;2.37;;
10725;SDS011;5414;59.782;16.378;2023-02-22T09:00:15;2.50;;;2.30;;
10725;SDS011;5414;59.782;16.378;2023-02-22T09:02:42;2.77;;;2.30;;
10725;SDS011;5414;59.782;16.378;2023-02-22T09:05:08;2.53;;;2.33;;
10725;SDS011;5414;59.782;16.378;2023-02-22T09:07:34;2.90;;;2.30;;
10725;SDS011;5414;59.782;16.378;2023-02-22T09:10:00;3.37;;;2.70;;
10725;SDS011;5414;59.782;16.378;2023-02-22T09:12:26;2.90;;;2.40;;
10725;SDS011;5414;59.782;16.378;2023-02-22T09:14:52;2.40;;;2.20;;
10725;SDS011;5414;59.782;16.378;2023-02-22T09:17:18;2.90;;;2.50;;
10725;SDS011;5414;59.782;16.378;2023-02-22T09:19:44;3.10;;;2.60;;
10725;SDS011;5414;59.782;16.378;2023-02-22T09:22:10;3.20;;;2.30;;
10725;SDS011;5414;59.782;16.378;2023-02-22T09:24:36;2.87;;;2.57;;
10725;SDS011;5414;59.782;16.378;2023-02-22T09:27:02;2.80;;;2.47;;
10725;SDS011;5414;59.782;16.378;2023-02-22T09:29:31;2.30;;;2.10;;
10725;SDS011;5414;59.782;16.378;2023-02-22T09:31:57;2.73;;;2.40;;
10725;SDS011;5414;59.782;16.378;2023-02-22T09:34:23;2.87;;;2.37;;
10725;SDS011;5414;59.782;16.378;2023-02-22T09:36:53;2.43;;;2.00;;
10725;SDS011;5414;59.782;16.378;2023-02-22T09:39:21;2.50;;;2.27;;
10725;SDS011;5414;59.782;16.378;2023-02-22T09:47:02;3.57;;;2.60;;
10725;SDS011;5414;59.782;16.378;2023-02-22T09:54:33;2.27;;;2.07;;
10725;SDS011;5414;59.782;16.378;2023-02-22T09:57:00;2.30;;;2.10;;
10725;SDS011;5414;59.782;16.378;2023-02-22T09:59:29;2.93;;;2.23;;
10725;SDS011;5414;59.782;16.378;2023-02-22T10:02:01;2.90;;;2.20;;
10725;SDS011;5414;59.782;16.378;2023-02-22T10:04:41;2.47;;;2.10;;
10725;SDS011;5414;59.782;16.378;2023-02-22T10:07:15;2.40;;;2.20;;
10725;SDS011;5414;59.782;16.378;2023-02-22T10:09:42;2.40;;;2.10;;
10725;SDS011;5414;59.782;16.378;2023-02-22T10:12:10;3.03;;;2.40;;
10725;SDS011;5414;59.782;16.378;2023-02-22T10:19:43;3.70;;;2.73;;
10725;SDS011;5414;59.782;16.378;2023-02-22T10:24:52;3.57;;;3.07;;
10725;SDS011;5414;59.782;16.378;2023-02-22T10:27:30;4.27;;;3.23;;
10725;SDS011;5414;59.782;16.378;2023-02-22T10:29:59;3.60;;;3.10;;
10725;SDS011;5414;59.782;16.378;2023-02-22T10:32:30;3.40;;;3.00;;
10725;SDS011;5414;59.782;16.378;2023-02-22T10:34:57;4.13;;;3.60;;
10725;SDS011;5414;59.782;16.378;2023-02-22T10:37:30;4.97;;;3.77;;
10725;SDS011;5414;59.782;16.378;2023-02-22T10:40:00;4.37;;;3.67;;
10725;SDS011;5414;59.782;16.378;2023-02-22T10:42:30;4.03;;;3.63;;
10725;SDS011;5414;59.782;16.378;2023-02-22T10:44:56;4.63;;;3.90;;
10725;SDS011;5414;59.782;16.378;2023-02-22T10:47:22;4.57;;;3.83;;
10725;SDS011;5414;59.782;16.378;2023-02-22T10:49:49;4.37;;;3.97;;
10725;SDS011;5414;59.782;16.378;2023-02-22T10:52:25;4.90;;;4.00;;
10725;SDS011;5414;59.782;16.378;2023-02-22T10:54:53;4.33;;;3.77;;
10725;SDS011;5414;59.782;16.378;2023-02-22T10:57:20;5.70;;;4.30;;
10725;SDS011;5414;59.782;16.378;2023-02-22T10:59:47;5.00;;;4.37;;
10725;SDS011;5414;59.782;16.378;2023-02-22T11:02:22;5.67;;;4.47;;
10725;SDS011;5414;59.782;16.378;2023-02-22T11:04:52;5.47;;;4.47;;
10725;SDS011;5414;59.782;16.378;2023-02-22T11:07:20;8.00;;;4.47;;
10725;SDS011;5414;59.782;16.378;2023-02-22T11:09:51;6.23;;;4.20;;
10725;SDS011;5414;59.782;16.378;2023-02-22T11:12:19;4.77;;;3.97;;
10725;SDS011;5414;59.782;16.378;2023-02-22T11:14:45;4.87;;;4.20;;
10725;SDS011;5414;59.782;16.378;2023-02-22T11:17:15;5.23;;;4.50;;
10725;SDS011;5414;59.782;16.378;2023-02-22T11:19:45;4.77;;;4.27;;
10725;SDS011;5414;59.782;16.378;2023-02-22T11:22:17;6.27;;;4.73;;
10725;SDS011;5414;59.782;16.378;2023-02-22T11:27:24;5.97;;;4.43;;
10725;SDS011;5414;59.782;16.378;2023-02-22T11:29:52;6.27;;;4.43;;
10725;SDS011;5414;59.782;16.378;2023-02-22T11:32:20;4.53;;;4.07;;
10725;SDS011;5414;59.782;16.378;2023-02-22T11:34:48;5.37;;;3.93;;
10725;SDS011;5414;59.782;16.378;2023-02-22T11:37:30;2.97;;;2.67;;
10725;SDS011;5414;59.782;16.378;2023-02-22T11:42:29;3.10;;;2.80;;
10725;SDS011;5414;59.782;16.378;2023-02-22T11:45:14;3.60;;;2.63;;
10725;SDS011;5414;59.782;16.378;2023-02-22T11:47:51;3.73;;;2.83;;
10725;SDS011;5414;59.782;16.378;2023-02-22T11:50:29;3.53;;;2.80;;
10725;SDS011;5414;59.782;16.378;2023-02-22T11:53:08;3.00;;;2.60;;
10725;SDS011;5414;59.782;16.378;2023-02-22T11:55:41;2.80;;;2.60;;
10725;SDS011;5414;59.782;16.378;2023-02-22T12:06:27;2.80;;;2.50;;
10725;SDS011;5414;59.782;16.378;2023-02-22T12:08:59;4.67;;;3.20;;
10725;SDS011;5414;59.782;16.378;2023-02-22T12:11:34;3.50;;;2.87;;
10725;SDS011;5414;59.782;16.378;2023-02-22T12:21:46;2.70;;;2.50;;
10725;SDS011;5414;59.782;16.378;2023-02-22T12:24:17;2.83;;;2.57;;
10725;SDS011;5414;59.782;16.378;2023-02-22T12:26:49;3.00;;;2.70;;
10725;SDS011;5414;59.782;16.378;2023-02-22T12:31:49;4.73;;;2.80;;
10725;SDS011;5414;59.782;16.378;2023-02-22T12:37:15;4.23;;;3.07;;
10725;SDS011;5414;59.782;16.378;2023-02-22T12:42:28;4.13;;;2.60;;
10725;SDS011;5414;59.782;16.378;2023-02-22T12:45:07;3.10;;;2.80;;
10725;SDS011;5414;59.782;16.378;2023-02-22T12:47:43;2.87;;;2.60;;
10725;SDS011;5414;59.782;16.378;2023-02-22T12:52:49;3.13;;;2.80;;
10725;SDS011;5414;59.782;16.378;2023-02-22T12:55:22;3.40;;;3.10;;
10725;SDS011;5414;59.782;16.378;2023-02-22T13:00:19;4.13;;;3.10;;
10725;SDS011;5414;59.782;16.378;2023-02-22T13:03:00;3.77;;;3.00;;
10725;SDS011;5414;59.782;16.378;2023-02-22T13:05:36;4.00;;;3.33;;
10725;SDS011;5414;59.782;16.378;2023-02-22T13:08:16;3.63;;;3.07;;
10725;SDS011;5414;59.782;16.378;2023-02-22T13:21:14;4.23;;;3.33;;
10725;SDS011;5414;59.782;16.378;2023-02-22T13:23:46;3.10;;;2.80;;
10725;SDS011;5414;59.782;16.378;2023-02-22T13:29:04;4.10;;;3.50;;
10725;SDS011;5414;59.782;16.378;2023-02-22T13:39:06;4.17;;;3.10;;
10725;SDS011;5414;59.782;16.378;2023-02-22T13:41:42;4.03;;;3.07;;
10725;SDS011;5414;59.782;16.378;2023-02-22T13:44:24;3.67;;;3.20;;
10725;SDS011;5414;59.782;16.378;2023-02-22T13:52:19;3.23;;;2.80;;
10725;SDS011;5414;59.782;16.378;2023-02-22T13:54:49;5.37;;;3.40;;
10725;SDS011;5414;59.782;16.378;2023-02-22T13:59:47;4.13;;;3.20;;
10725;SDS011;5414;59.782;16.378;2023-02-22T14:05:22;3.33;;;3.00;;
10725;SDS011;5414;59.782;16.378;2023-02-22T14:07:48;3.33;;;2.90;;
10725;SDS011;5414;59.782;16.378;2023-02-22T14:10:36;3.77;;;3.03;;
10725;SDS011;5414;59.782;16.378;2023-02-22T14:13:05;3.67;;;3.03;;
10725;SDS011;5414;59.782;16.378;2023-02-22T14:15:31;4.07;;;3.47;;
10725;SDS011;5414;59.782;16.378;2023-02-22T14:17:58;4.00;;;2.83;;
10725;SDS011;5414;59.782;16.378;2023-02-22T14:22:55;3.20;;;2.90;;
10725;SDS011;5414;59.782;16.378;2023-02-22T14:25:29;3.83;;;3.27;;
10725;SDS011;5414;59.782;16.378;2023-02-22T14:27:56;3.43;;;3.00;;
10725;SDS011;5414;59.782;16.378;2023-02-22T14:30:26;3.87;;;3.00;;
10725;SDS011;5414;59.782;16.378;2023-02-22T14:32:53;3.30;;;3.00;;
10725;SDS011;5414;59.782;16.378;2023-02-22T14:35:19;3.80;;;3.10;;
10725;SDS011;5414;59.782;16.378;2023-02-22T14:37:51;3.90;;;3.40;;
10725;SDS011;5414;59.782;16.378;2023-02-22T14:40:25;3.90;;;3.40;;
10725;SDS011;5414;59.782;16.378;2023-02-22T14:45:31;4.43;;;3.20;;
10725;SDS011;5414;59.782;16.378;2023-02-22T14:50:48;3.40;;;3.10;;
10725;SDS011;5414;59.782;16.378;2023-02-22T14:53:26;3.10;;;2.80;;
10725;SDS011;5414;59.782;16.378;2023-02-22T14:56:00;4.33;;;3.50;;
10725;SDS011;5414;59.782;16.378;2023-02-22T14:58:31;3.53;;;3.00;;
10725;SDS011;5414;59.782;16.378;2023-02-22T15:00:59;3.70;;;3.17;;
10725;SDS011;5414;59.782;16.378;2023-02-22T15:03:44;5.10;;;3.60;;
10725;SDS011;5414;59.782;16.378;2023-02-22T15:06:21;4.13;;;3.27;;
10725;SDS011;5414;59.782;16.378;2023-02-22T15:08:48;3.20;;;2.90;;
10725;SDS011;5414;59.782;16.378;2023-02-22T15:11:24;3.73;;;3.10;;
10725;SDS011;5414;59.782;16.378;2023-02-22T15:13:55;3.77;;;3.17;;
10725;SDS011;5414;59.782;16.378;2023-02-22T15:16:22;3.70;;;3.23;;
10725;SDS011;5414;59.782;16.378;2023-02-22T15:18:53;3.80;;;2.90;;
10725;SDS011;5414;59.782;16.378;2023-02-22T15:21:21;5.67;;;3.40;;
10725;SDS011;5414;59.782;16.378;2023-02-22T15:23:49;4.43;;;3.33;;
10725;SDS011;5414;59.782;16.378;2023-02-22T15:26:20;3.63;;;3.23;;
10725;SDS011;5414;59.782;16.378;2023-02-22T15:28:51;3.43;;;2.90;;
10725;SDS011;5414;59.782;16.378;2023-02-22T15:31:22;5.17;;;3.17;;
10725;SDS011;5414;59.782;16.378;2023-02-22T15:33:49;3.47;;;3.17;;
10725;SDS011;5414;59.782;16.378;2023-02-22T15:36:17;3.83;;;3.20;;
10725;SDS011;5414;59.782;16.378;2023-02-22T15:38:47;4.23;;;3.30;;
10725;SDS011;5414;59.782;16.378;2023-02-22T15:41:22;3.33;;;3.00;;
10725;SDS011;5414;59.782;16.378;2023-02-22T15:43:59;3.40;;;3.10;;
10725;SDS011;5414;59.782;16.378;2023-02-22T15:46:25;4.37;;;2.77;;
10725;SDS011;5414;59.782;16.378;2023-02-22T15:51:33;3.70;;;3.30;;
10725;SDS011;5414;59.782;16.378;2023-02-22T15:54:00;3.37;;;3.00;;
10725;SDS011;5414;59.782;16.378;2023-02-22T15:56:27;3.90;;;3.17;;
10725;SDS011;5414;59.782;16.378;2023-02-22T15:58:58;3.57;;;3.23;;
10725;SDS011;5414;59.782;16.378;2023-02-22T16:01:24;5.07;;;3.70;;
10725;SDS011;5414;59.782;16.378;2023-02-22T16:03:52;3.57;;;3.13;;
10725;SDS011;5414;59.782;16.378;2023-02-22T16:08:54;5.37;;;3.50;;
10725;SDS011;5414;59.782;16.378;2023-02-22T16:13:53;4.23;;;3.53;;
10725;SDS011;5414;59.782;16.378;2023-02-22T16:16:20;4.53;;;3.57;;
10725;SDS011;5414;59.782;16.378;2023-02-22T16:18:47;4.17;;;3.50;;
10725;SDS011;5414;59.782;16.378;2023-02-22T16:21:14;4.23;;;3.83;;
10725;SDS011;5414;59.782;16.378;2023-02-22T16:23:51;4.90;;;3.93;;
10725;SDS011;5414;59.782;16.378;2023-02-22T16:26:22;4.90;;;3.40;;
10725;SDS011;5414;59.782;16.378;2023-02-22T16:28:50;4.47;;;3.87;;
10725;SDS011;5414;59.782;16.378;2023-02-22T16:31:17;4.87;;;3.70;;
10725;SDS011;5414;59.782;16.378;2023-02-22T16:33:45;5.10;;;4.20;;
10725;SDS011;5414;59.782;16.378;2023-02-22T16:36:11;4.40;;;3.57;;
10725;SDS011;5414;59.782;16.378;2023-02-22T16:38:37;4.50;;;3.60;;
10725;SDS011;5414;59.782;16.378;2023-02-22T16:41:04;4.97;;;4.13;;
10725;SDS011;5414;59.782;16.378;2023-02-22T16:43:31;4.53;;;4.00;;
10725;SDS011;5414;59.782;16.378;2023-02-22T16:45:58;4.60;;;3.87;;
10725;SDS011;5414;59.782;16.378;2023-02-22T16:48:29;4.47;;;3.87;;
10725;SDS011;5414;59.782;16.378;2023-02-22T16:50:58;4.77;;;3.90;;
10725;SDS011;5414;59.782;16.378;2023-02-22T16:53:25;6.70;;;4.33;;
10725;SDS011;5414;59.782;16.378;2023-02-22T16:55:53;5.13;;;3.80;;
10725;SDS011;5414;59.782;16.378;2023-02-22T16:58:22;4.70;;;3.90;;
10725;SDS011;5414;59.782;16.378;2023-02-22T17:00:52;4.27;;;3.47;;
10725;SDS011;5414;59.782;16.378;2023-02-22T17:03:18;4.13;;;3.73;;
10725;SDS011;5414;59.782;16.378;2023-02-22T17:05:45;4.30;;;3.83;;
10725;SDS011;5414;59.782;16.378;2023-02-22T17:08:11;5.47;;;4.10;;
10725;SDS011;5414;59.782;16.378;2023-02-22T17:10:37;5.80;;;3.77;;
10725;SDS011;5414;59.782;16.378;2023-02-22T17:13:04;4.90;;;3.67;;
10725;SDS011;5414;59.782;16.378;2023-02-22T17:15:34;4.87;;;3.67;;
10725;SDS011;5414;59.782;16.378;2023-02-22T17:18:01;4.53;;;3.70;;